createdAt,value
2023-04-04T00:01:13.089Z,99959.44
2023-04-04T00:03:42.147Z,99960.38
2023-04-04T00:06:11.023Z,99967.91
2023-04-04T00:08:39.785Z,99962.81
2023-04-04T00:11:08.525Z,99960.38
2023-04-04T00:13:37.650Z,99960.25
2023-04-04T00:16:08.396Z,99963.47
2023-04-04T00:18:37.201Z,99954.97
2023-04-04T00:21:06.224Z,99967.84
2023-04-04T00:23:35.107Z,99930.09
2023-04-04T00:26:03.780Z,99959.69
2023-04-04T00:28:32.615Z,99963.13
2023-04-04T00:31:02.624Z,99973.94
2023-04-04T00:33:32.926Z,99978.13
2023-04-04T00:36:01.860Z,99973.78
2023-04-04T00:38:30.717Z,99980.66
2023-04-04T00:40:59.634Z,99980.75
2023-04-04T00:43:29.022Z,99980.81
2023-04-04T00:45:58.211Z,99979.03
2023-04-04T00:48:27.639Z,99974.69
2023-04-04T00:50:57.856Z,99979.63
2023-04-04T00:53:27.447Z,99991.41
2023-04-04T00:55:56.145Z,99981.56
2023-04-04T00:58:27.860Z,99980.66
2023-04-04T01:00:56.914Z,99980.66
2023-04-04T01:03:25.956Z,99994.94
2023-04-04T01:05:55.952Z,99986.47
2023-04-04T01:08:27.854Z,99984.75
2023-04-04T01:10:56.912Z,99982.19
2023-04-04T01:13:25.838Z,99992.13
2023-04-04T01:15:54.676Z,99988.72
2023-04-04T01:18:25.804Z,99992.88
2023-04-04T01:20:59.459Z,99995.41
2023-04-04T01:23:45.134Z,99990.38
2023-04-04T01:26:17.025Z,99987.97
2023-04-04T01:28:46.712Z,99989.56
2023-04-04T01:31:20.938Z,99987.09
2023-04-04T01:33:56.971Z,99981.31
2023-04-04T01:36:33.503Z,99985.31
2023-04-04T01:39:11.453Z,99984.50
2023-04-04T01:41:43.911Z,99979.50
2023-04-04T01:44:13.045Z,99993.13
2023-04-04T01:46:41.710Z,99987.91
2023-04-04T01:49:12.604Z,99985.41
2023-04-04T01:51:42.196Z,99982.81
2023-04-04T01:54:11.282Z,99974.19
2023-04-04T01:56:41.432Z,99965.88
2023-04-04T01:59:10.571Z,99955.81
2023-04-04T02:01:39.856Z,99960.72
2023-04-04T02:04:11.402Z,99954.91
2023-04-04T02:06:41.658Z,99955.78
2023-04-04T02:09:11.467Z,99950.78
2023-04-04T02:11:41.654Z,99952.38
2023-04-04T02:14:10.488Z,99949.16
2023-04-04T02:16:39.384Z,99943.50
2023-04-04T02:19:08.253Z,99948.53
2023-04-04T02:21:39.238Z,99941.91
2023-04-04T02:24:08.987Z,99933.56
2023-04-04T02:26:37.574Z,99942.75
2023-04-04T02:29:09.638Z,99937.84
2023-04-04T02:31:39.088Z,99936.88
2023-04-04T02:34:10.669Z,99947.13
2023-04-04T02:36:39.644Z,99935.50
2023-04-04T02:39:08.428Z,99929.72
2023-04-04T02:41:41.952Z,99934.50
2023-04-04T02:44:12.878Z,99919.19
2023-04-04T02:46:42.256Z,99921.00
2023-04-04T02:49:15.854Z,99918.66
2023-04-04T02:51:49.220Z,99911.16
2023-04-04T02:54:18.730Z,99905.31
2023-04-04T02:56:49.308Z,99901.00
2023-04-04T02:59:20.006Z,99902.69
2023-04-04T03:01:48.936Z,99888.28
2023-04-04T03:04:19.621Z,99883.09
2023-04-04T03:06:49.261Z,99889.00
2023-04-04T03:09:17.964Z,99890.69
2023-04-04T03:11:46.759Z,99889.06
2023-04-04T03:14:15.712Z,99890.75
2023-04-04T03:16:46.371Z,99882.94
2023-04-04T03:19:15.137Z,99878.81
2023-04-04T03:21:43.948Z,99877.94
2023-04-04T03:24:13.487Z,99863.69
2023-04-04T03:26:42.516Z,99867.13
2023-04-04T03:29:14.531Z,99853.75
2023-04-04T03:31:43.397Z,99851.22
2023-04-04T03:34:13.708Z,99844.25
2023-04-04T03:36:43.026Z,99851.81
2023-04-04T03:39:11.677Z,99846.78
2023-04-04T03:41:41.169Z,99845.78
2023-04-04T03:44:10.019Z,99839.81
2023-04-04T03:46:38.966Z,99839.69
2023-04-04T03:49:07.776Z,99848.94
2023-04-04T03:51:38.033Z,99839.53
2023-04-04T03:54:07.042Z,99847.84
2023-04-04T03:56:35.778Z,99845.91
2023-04-04T03:59:08.090Z,99854.13
2023-04-04T04:01:36.786Z,99854.13
2023-04-04T04:04:05.474Z,99861.75
2023-04-04T04:06:34.538Z,99862.50
2023-04-04T04:09:04.760Z,99860.78
2023-04-04T04:11:33.555Z,99860.78
2023-04-04T04:14:02.334Z,99862.63
2023-04-04T04:16:33.163Z,99862.38
2023-04-04T04:19:02.564Z,99857.22
2023-04-04T04:21:44.655Z,99863.97
2023-04-04T04:24:14.934Z,99866.38
2023-04-04T04:26:44.299Z,99864.84
2023-04-04T04:29:17.564Z,99864.94
2023-04-04T04:31:46.560Z,99874.06
2023-04-04T04:34:15.670Z,99866.53
2023-04-04T04:36:44.779Z,99871.53
2023-04-04T04:39:26.310Z,99872.31
2023-04-04T04:42:07.201Z,99869.94
2023-04-04T04:44:39.274Z,99870.63
2023-04-04T04:47:08.056Z,99870.72
2023-04-04T04:49:37.541Z,99874.34
2023-04-04T04:52:10.055Z,99881.13
2023-04-04T04:54:45.510Z,99883.81
2023-04-04T04:57:15.563Z,99876.19
2023-04-04T04:59:46.204Z,99886.38
2023-04-04T05:02:17.507Z,99885.59
2023-04-04T05:04:48.881Z,99886.38
2023-04-04T05:07:19.334Z,99898.38
2023-04-04T05:09:51.537Z,99898.34
2023-04-04T05:12:24.179Z,99902.66
2023-04-04T05:14:54.863Z,99896.88
2023-04-04T05:17:24.121Z,99898.63
2023-04-04T05:19:56.548Z,99891.84
2023-04-04T05:22:25.572Z,99898.50
2023-04-04T05:24:56.265Z,99891.97
2023-04-04T05:27:27.519Z,99897.00
2023-04-04T05:30:00.888Z,99908.78
2023-04-04T05:32:39.718Z,99903.97
2023-04-04T05:35:14.672Z,99908.25
2023-04-04T05:37:44.016Z,99909.06
2023-04-04T05:40:19.466Z,99914.25
2023-04-04T05:42:57.845Z,99913.00
2023-04-04T05:45:33.056Z,99914.22
2023-04-04T05:48:02.880Z,99908.56
2023-04-04T05:50:35.220Z,99913.00
2023-04-04T05:53:07.000Z,99905.56
2023-04-04T05:55:37.160Z,99919.31
2023-04-04T05:58:06.016Z,99913.75
2023-04-04T06:00:46.931Z,99913.25
2023-04-04T06:03:17.483Z,99912.56
2023-04-04T06:05:53.703Z,99920.31
2023-04-04T06:08:22.996Z,99921.22
2023-04-04T06:10:55.622Z,99921.34
2023-04-04T06:13:24.944Z,99916.06
2023-04-04T06:15:59.201Z,99912.50
2023-04-04T06:18:27.968Z,99916.72
2023-04-04T06:20:57.096Z,99912.44
2023-04-04T06:23:26.260Z,99919.31
2023-04-04T06:25:56.573Z,99916.84
2023-04-04T06:28:25.890Z,99914.97
2023-04-04T06:30:55.091Z,99916.41
2023-04-04T06:33:30.819Z,99910.50
2023-04-04T06:35:59.594Z,99912.53
2023-04-04T06:38:29.624Z,99908.63
2023-04-04T06:41:03.212Z,99915.44
2023-04-04T06:43:32.602Z,99909.22
2023-04-04T06:46:02.299Z,99913.56
2023-04-04T06:48:31.062Z,99909.63
2023-04-04T06:50:59.880Z,99907.66
2023-04-04T06:53:29.510Z,99907.25
2023-04-04T06:55:58.313Z,99917.34
2023-04-04T06:58:28.422Z,99919.78
2023-04-04T07:01:00.154Z,99920.78
2023-04-04T07:03:29.258Z,99923.28
2023-04-04T07:05:57.836Z,99915.63
2023-04-04T07:08:28.749Z,99915.53
2023-04-04T07:10:57.857Z,99918.66
2023-04-04T07:13:28.479Z,99918.19
2023-04-04T07:15:57.278Z,99911.47
2023-04-04T07:18:25.911Z,99918.41
2023-04-04T07:20:54.715Z,99923.47
2023-04-04T07:23:23.251Z,99916.22
2023-04-04T07:25:55.275Z,99909.59
2023-04-04T07:28:24.082Z,99915.47
2023-04-04T07:30:54.135Z,99917.41
2023-04-04T07:33:22.902Z,99909.03
2023-04-04T07:35:52.581Z,99910.88
2023-04-04T07:38:20.949Z,99895.69
2023-04-04T07:40:50.828Z,99905.97
2023-04-04T07:43:19.561Z,99896.22
2023-04-04T07:45:48.309Z,99902.44
2023-04-04T07:48:19.666Z,99904.81
2023-04-04T07:50:49.387Z,99901.56
2023-04-04T07:53:17.948Z,99892.38
2023-04-04T07:55:46.779Z,99912.03
2023-04-04T07:58:15.670Z,99908.44
2023-04-04T08:00:44.384Z,99902.25
2023-04-04T08:03:13.222Z,99919.13
2023-04-04T08:05:44.684Z,99927.34
2023-04-04T08:08:13.904Z,99922.19
2023-04-04T08:10:42.891Z,99905.91
2023-04-04T08:13:11.854Z,99914.97
2023-04-04T08:15:40.853Z,99900.00
2023-04-04T08:18:09.720Z,99908.63
2023-04-04T08:20:38.651Z,99893.28
2023-04-04T08:23:10.069Z,99899.19
2023-04-04T08:25:39.623Z,99894.50
2023-04-04T08:28:08.447Z,99886.03
2023-04-04T08:30:37.310Z,99904.63
2023-04-04T08:33:06.960Z,99892.69
2023-04-04T08:35:35.715Z,99904.34
2023-04-04T08:38:06.415Z,99897.69
2023-04-04T08:40:38.756Z,99904.78
2023-04-04T08:43:09.146Z,99913.22
2023-04-04T08:45:40.460Z,99891.78
2023-04-04T08:48:12.014Z,99891.78
2023-04-04T08:50:42.056Z,99891.78
2023-04-04T08:53:13.282Z,99881.09
2023-04-04T08:55:44.574Z,99873.47
2023-04-04T08:58:13.556Z,99867.72
2023-04-04T09:00:43.677Z,99862.84
2023-04-04T09:03:21.892Z,99852.06
2023-04-04T09:05:51.328Z,99860.47
2023-04-04T09:08:20.436Z,99851.66
2023-04-04T09:10:51.639Z,99861.94
2023-04-04T09:13:20.896Z,99870.63
2023-04-04T09:15:51.515Z,99862.06
2023-04-04T09:18:20.279Z,99853.09
2023-04-04T09:20:50.072Z,99857.03
2023-04-04T09:23:21.225Z,99874.88
2023-04-04T09:26:03.250Z,99863.63
2023-04-04T09:28:34.528Z,99866.78
2023-04-04T09:31:06.056Z,99869.00
2023-04-04T09:33:36.582Z,99871.44
2023-04-04T09:36:10.552Z,99880.69
2023-04-04T09:38:43.558Z,99858.97
2023-04-04T09:41:17.026Z,99859.28
2023-04-04T09:43:46.977Z,99856.25
2023-04-04T09:46:17.537Z,99857.59
2023-04-04T09:48:52.148Z,99859.66
2023-04-04T09:51:20.896Z,99859.84
2023-04-04T09:53:49.987Z,99852.91
2023-04-04T09:56:21.225Z,99856.25
2023-04-04T10:01:22.894Z,99844.19
2023-04-04T10:03:54.027Z,99842.50
2023-04-04T10:06:23.814Z,99838.06
2023-04-04T10:08:52.477Z,99839.09
2023-04-04T10:11:33.832Z,99832.63
2023-04-04T10:14:04.256Z,99840.22
2023-04-04T10:16:38.311Z,99831.69
2023-04-04T10:19:08.973Z,99846.09
2023-04-04T10:21:38.245Z,99830.75
2023-04-04T10:24:10.354Z,99834.66
2023-04-04T10:26:41.251Z,99833.56
2023-04-04T10:29:10.234Z,99828.53
2023-04-04T10:31:43.997Z,99837.78
2023-04-04T10:34:21.892Z,99829.91
2023-04-04T10:36:53.019Z,99844.47
2023-04-04T10:40:04.818Z,99833.56
2023-04-04T10:42:41.894Z,99830.25
2023-04-04T10:45:20.390Z,99819.63
2023-04-04T10:47:52.229Z,99812.13
2023-04-04T10:50:22.071Z,99807.13
2023-04-04T10:52:51.985Z,99820.91
2023-04-04T10:55:21.215Z,99814.41
2023-04-04T10:57:54.290Z,99811.06
2023-04-04T11:00:24.792Z,99816.13
2023-04-04T11:02:58.108Z,99815.13
2023-04-04T11:05:28.465Z,99833.94
2023-04-04T11:10:33.964Z,99802.59
2023-04-04T11:13:13.803Z,99804.38
2023-04-04T11:15:49.219Z,99792.56
2023-04-04T11:18:30.547Z,99802.75
2023-04-04T11:21:03.807Z,99794.25
2023-04-04T11:24:11.131Z,99782.44
2023-04-04T11:26:45.653Z,99800.31
2023-04-04T11:29:25.225Z,99791.78
2023-04-04T11:31:54.432Z,99789.16
2023-04-04T11:34:34.650Z,99785.69
2023-04-04T11:37:17.795Z,99784.06
2023-04-04T11:39:57.424Z,99787.41
2023-04-04T11:42:35.318Z,99781.25
2023-04-04T11:45:07.302Z,99775.31
2023-04-04T11:47:36.164Z,99774.66
2023-04-04T11:50:10.169Z,99767.88
2023-04-04T11:52:39.649Z,99771.41
2023-04-04T11:55:17.641Z,99765.41
2023-04-04T11:57:48.369Z,99767.00
2023-04-04T12:00:32.496Z,99777.16
2023-04-04T12:03:01.405Z,99776.28
2023-04-04T12:05:32.015Z,99766.97
2023-04-04T12:08:02.661Z,99775.28
2023-04-04T12:10:33.660Z,99766.88
2023-04-04T12:13:02.879Z,99763.38
2023-04-04T12:15:33.514Z,99767.88
2023-04-04T12:18:03.683Z,99757.81
2023-04-04T12:20:33.133Z,99752.59
2023-04-04T12:23:02.325Z,99750.78
2023-04-04T12:25:34.304Z,99753.28
2023-04-04T12:28:05.640Z,99751.75
2023-04-04T12:30:36.312Z,99748.31
2023-04-04T12:33:05.806Z,99741.50
2023-04-04T12:35:34.650Z,99739.75
2023-04-04T12:38:06.476Z,99750.75
2023-04-04T12:40:37.534Z,99739.75
2023-04-04T12:43:08.351Z,99737.22
2023-04-04T12:45:42.642Z,99733.94
2023-04-04T12:48:14.397Z,99739.06
2023-04-04T12:50:55.179Z,99749.16
2023-04-04T12:56:01.610Z,99742.56
2023-04-04T12:58:30.809Z,99729.72
2023-04-04T13:01:02.771Z,99743.22
2023-04-04T13:03:32.378Z,99735.63
2023-04-04T13:06:01.242Z,99748.31
2023-04-04T13:08:30.108Z,99745.78
2023-04-04T13:11:02.338Z,99738.31
2023-04-04T13:13:37.435Z,99711.00
2023-04-04T13:16:08.925Z,99748.22
2023-04-04T13:18:42.386Z,99748.25
2023-04-04T13:21:13.755Z,99755.19
2023-04-04T13:23:43.101Z,99760.38
2023-04-04T13:26:12.732Z,99761.91
2023-04-04T13:28:41.534Z,99749.94
2023-04-04T13:31:11.948Z,99742.28
2023-04-04T13:33:40.813Z,99746.47
2023-04-04T13:36:11.104Z,99750.03
2023-04-04T13:38:39.903Z,99750.81
2023-04-04T13:41:08.642Z,99754.84
2023-04-04T13:43:37.524Z,99753.06
2023-04-04T13:46:06.411Z,99750.69
2023-04-04T13:48:36.553Z,99748.13
2023-04-04T13:51:05.492Z,99755.72
2023-04-04T13:53:34.445Z,99754.78
2023-04-04T13:56:17.864Z,99749.78
2023-04-04T13:58:47.691Z,99758.16
2023-04-04T14:01:16.796Z,99764.94
2023-04-04T14:03:49.365Z,99759.97
2023-04-04T14:06:18.061Z,99768.41
2023-04-04T14:08:48.370Z,99768.47
2023-04-04T14:11:17.393Z,99761.72
2023-04-04T14:13:46.365Z,99748.03
2023-04-04T14:16:16.398Z,99756.47
2023-04-04T14:18:49.493Z,99742.78
2023-04-04T14:21:18.343Z,99755.53
2023-04-04T14:23:47.552Z,99759.72
2023-04-04T14:26:16.390Z,99754.53
2023-04-04T14:28:45.144Z,99770.59
2023-04-04T14:31:13.989Z,99768.94
2023-04-04T14:33:42.787Z,99769.66
2023-04-04T14:36:13.108Z,99771.41
2023-04-04T14:38:41.904Z,99770.34
2023-04-04T14:41:11.051Z,99781.06
2023-04-04T14:43:39.874Z,99789.16
2023-04-04T14:46:08.654Z,99778.81
2023-04-04T14:48:37.443Z,99774.50
2023-04-04T14:51:06.526Z,99780.50
2023-04-04T14:53:36.936Z,99790.59
2023-04-04T14:56:06.016Z,99783.84
2023-04-04T14:58:34.733Z,99794.19
2023-04-04T15:01:03.910Z,99792.50
2023-04-04T15:03:32.653Z,99800.00
2023-04-04T15:06:02.285Z,99796.38
2023-04-04T15:08:31.047Z,99801.50
2023-04-04T15:11:02.447Z,99791.19
2023-04-04T15:13:31.351Z,99807.28
2023-04-04T15:16:01.824Z,99808.81
2023-04-04T15:18:31.026Z,99800.19
2023-04-04T15:20:59.940Z,99808.59
2023-04-04T15:23:28.722Z,99803.56
2023-04-04T15:25:57.502Z,99791.66
2023-04-04T15:28:28.910Z,99818.66
2023-04-04T15:30:58.239Z,99810.25
2023-04-04T15:33:27.055Z,99813.78
2023-04-04T15:35:55.851Z,99817.22
2023-04-04T15:38:24.622Z,99819.47
2023-04-04T15:40:53.468Z,99825.13
2023-04-04T15:43:22.675Z,99832.47
2023-04-04T15:45:52.872Z,99832.16
2023-04-04T15:48:22.136Z,99834.50
2023-04-04T15:50:50.955Z,99841.47
2023-04-04T15:53:19.739Z,99830.50
2023-04-04T15:55:48.687Z,99840.44
2023-04-04T15:58:17.538Z,99846.38
2023-04-04T16:00:47.648Z,99838.53
2023-04-04T16:03:18.027Z,99841.72
2023-04-04T16:05:46.940Z,99851.06
2023-04-04T16:08:16.039Z,99852.63
2023-04-04T16:10:44.902Z,99852.38
2023-04-04T16:13:15.225Z,99862.34
2023-04-04T16:15:44.102Z,99865.53
2023-04-04T16:18:12.940Z,99869.66
2023-04-04T16:20:43.247Z,99872.28
2023-04-04T16:23:11.874Z,99873.19
2023-04-04T16:25:40.893Z,99877.22
2023-04-04T16:28:09.672Z,99870.34
2023-04-04T16:30:38.662Z,99873.41
2023-04-04T16:33:08.092Z,99876.69
2023-04-04T16:35:37.680Z,99881.69
2023-04-04T16:38:09.045Z,99878.84
2023-04-04T16:40:38.383Z,99890.72
2023-04-04T16:43:07.381Z,99888.91
2023-04-04T16:45:36.226Z,99898.16
2023-04-04T16:48:05.206Z,99899.94
2023-04-04T16:50:34.020Z,99900.44
2023-04-04T16:53:04.341Z,99908.75
2023-04-04T16:55:34.548Z,99902.78
2023-04-04T16:58:03.735Z,99913.56
2023-04-04T17:00:33.432Z,99927.00
2023-04-04T17:03:02.363Z,99917.50
2023-04-04T17:05:31.123Z,99919.91
2023-04-04T17:07:59.937Z,99920.69
2023-04-04T17:10:28.824Z,99921.44
2023-04-04T17:12:58.990Z,99933.91
2023-04-04T17:15:28.764Z,99938.63
2023-04-04T17:17:57.510Z,99935.22
2023-04-04T17:20:27.801Z,99939.28
2023-04-04T17:22:58.482Z,99945.75
2023-04-04T17:25:29.444Z,99938.06
2023-04-04T17:27:59.754Z,99946.47
2023-04-04T17:30:28.555Z,99946.38
2023-04-04T17:32:57.709Z,99947.81
2023-04-04T17:35:27.262Z,99957.03
2023-04-04T17:37:56.841Z,99957.78
2023-04-04T17:40:25.600Z,99956.75
2023-04-04T17:42:54.515Z,99964.09
2023-04-04T17:45:25.077Z,99972.31
2023-04-04T17:47:53.881Z,99969.72
2023-04-04T17:50:22.782Z,99978.03
2023-04-04T17:52:51.746Z,99978.69
2023-04-04T17:55:21.468Z,99977.00
2023-04-04T17:57:49.983Z,99987.88
2023-04-04T18:00:21.243Z,99985.19
2023-04-04T18:02:51.647Z,99992.63
2023-04-04T18:05:20.796Z,99994.97
2023-04-04T18:07:49.599Z,99997.09
2023-04-04T18:10:18.583Z,100000.09
2023-04-04T18:12:47.491Z,100003.34
2023-04-04T18:15:16.867Z,100012.59
2023-04-04T18:17:45.601Z,100005.63
2023-04-04T18:20:27.832Z,100010.56
2023-04-04T18:23:04.784Z,100015.44
2023-04-04T18:25:34.763Z,100023.72
2023-04-04T18:28:03.672Z,100021.75
2023-04-04T18:30:35.587Z,100020.06
2023-04-04T18:33:05.590Z,100025.91
2023-04-04T18:35:36.633Z,100032.78
2023-04-04T18:38:06.333Z,100038.50
2023-04-04T18:40:34.872Z,100040.19
2023-04-04T18:43:04.412Z,100046.03
2023-04-04T18:45:39.841Z,100042.38
2023-04-04T18:48:09.881Z,100039.94
2023-04-04T18:50:40.311Z,100039.94
2023-04-04T18:53:09.866Z,100045.59
2023-04-04T18:55:39.018Z,100047.97
2023-04-04T18:58:11.052Z,100052.69
2023-04-04T19:00:40.334Z,100050.97
2023-04-04T19:03:11.677Z,100045.81
2023-04-04T19:05:48.122Z,100050.97
2023-04-04T19:08:17.739Z,100070.19
2023-04-04T19:10:48.058Z,100065.78
2023-04-04T19:13:17.257Z,100057.19
2023-04-04T19:15:46.013Z,100055.56
2023-04-04T19:18:15.017Z,100053.75
2023-04-04T19:20:45.264Z,100057.06
2023-04-04T19:23:14.563Z,100062.81
2023-04-04T19:25:43.553Z,100065.78
2023-04-04T19:28:12.467Z,100063.22
2023-04-04T19:30:45.254Z,100068.19
2023-04-04T19:33:15.424Z,100062.94
2023-04-04T19:35:55.180Z,100063.88
2023-04-04T19:38:26.473Z,100052.75
2023-04-04T19:40:58.685Z,100052.53
2023-04-04T19:43:28.756Z,100061.13
2023-04-04T19:45:59.842Z,100051.72
2023-04-04T19:48:42.263Z,100059.19
2023-04-04T19:51:29.104Z,100062.47
2023-04-04T19:53:59.423Z,100059.09
2023-04-04T19:56:30.043Z,100066.59
2023-04-04T19:59:01.157Z,100061.56
2023-04-04T20:01:32.184Z,100060.53
2023-04-04T20:04:09.703Z,100059.53
2023-04-04T20:06:40.180Z,100061.22
2023-04-04T20:09:14.221Z,100064.41
2023-04-04T20:11:43.679Z,100059.38
2023-04-04T20:14:12.261Z,100064.41
2023-04-04T20:16:41.249Z,100065.31
2023-04-04T20:19:11.705Z,100072.63
2023-04-04T20:21:42.127Z,100070.34
2023-04-04T20:24:11.574Z,100066.88
2023-04-04T20:26:59.877Z,100069.53
2023-04-04T20:29:31.293Z,100072.88
2023-04-04T20:32:02.096Z,100057.50
2023-04-04T20:34:40.031Z,100059.84
2023-04-04T20:37:16.401Z,100069.69
2023-04-04T20:39:49.289Z,100060.22
2023-04-04T20:42:38.342Z,100062.56
2023-04-04T20:45:36.080Z,100056.69
2023-04-04T20:48:08.684Z,100054.94
2023-04-04T20:50:44.639Z,100055.91
2023-04-04T20:53:20.685Z,100065.00
2023-04-04T20:55:50.780Z,100058.94
2023-04-04T20:58:29.782Z,100062.22
2023-04-04T21:01:00.890Z,100065.56
2023-04-04T21:03:38.480Z,100062.81
2023-04-04T21:06:16.172Z,100061.22
2023-04-04T21:08:48.836Z,100061.09
2023-04-04T21:11:25.325Z,100068.72
2023-04-04T21:13:56.795Z,100066.94
2023-04-04T21:16:27.955Z,100067.66
2023-04-04T21:19:00.159Z,100065.88
2023-04-04T21:21:29.754Z,100066.75
2023-04-04T21:24:00.816Z,100066.44
2023-04-04T21:26:33.208Z,100061.84
2023-04-04T21:29:05.249Z,100067.06
2023-04-04T21:31:38.969Z,100063.91
2023-04-04T21:34:15.012Z,100067.34
2023-04-04T21:36:45.171Z,100066.09
2023-04-04T21:39:16.117Z,100068.56
2023-04-04T21:41:46.437Z,100066.97
2023-04-04T21:44:15.183Z,100070.53
2023-04-04T21:46:44.626Z,100061.22
2023-04-04T21:49:13.713Z,100067.69
2023-04-04T21:51:42.587Z,100067.69
2023-04-04T21:54:11.688Z,100057.38
2023-04-04T21:56:41.882Z,100056.66
2023-04-04T21:59:11.517Z,100051.56
2023-04-04T22:01:40.928Z,100052.44
2023-04-04T22:04:09.728Z,100047.94
2023-04-04T22:06:38.499Z,100046.06
2023-04-04T22:09:07.473Z,100046.06
2023-04-04T22:11:39.029Z,100042.78
2023-04-04T22:14:09.339Z,100038.41
2023-04-04T22:16:43.519Z,100040.81
2023-04-04T22:19:15.801Z,100039.94
2023-04-04T22:21:48.411Z,100030.63
2023-04-04T22:24:19.033Z,100030.47
2023-04-04T22:26:50.664Z,100037.09
2023-04-04T22:29:20.976Z,100029.38
2023-04-04T22:31:49.846Z,100029.97
2023-04-04T22:34:18.629Z,100035.50
2023-04-04T22:36:47.455Z,100036.50
2023-04-04T22:39:20.701Z,100035.66
2023-04-04T22:41:49.672Z,100031.66
2023-04-04T22:44:18.373Z,100034.31
2023-04-04T22:46:48.699Z,100034.06
2023-04-04T22:49:18.212Z,100036.31
2023-04-04T22:51:46.866Z,100031.88
2023-04-04T22:54:16.896Z,100033.81
2023-04-04T22:56:46.163Z,100023.84
2023-04-04T22:59:14.940Z,100021.09
2023-04-04T23:01:43.910Z,100021.88
2023-04-04T23:04:14.333Z,100017.72
2023-04-04T23:06:45.092Z,100019.91
2023-04-04T23:09:14.700Z,100016.97
2023-04-04T23:11:43.582Z,100014.50
2023-04-04T23:14:15.392Z,100017.69
2023-04-04T23:16:44.507Z,100016.16
2023-04-04T23:19:14.795Z,100020.84
2023-04-04T23:21:43.956Z,100016.50
2023-04-04T23:24:12.763Z,100012.38
2023-04-04T23:26:41.554Z,100017.41
2023-04-04T23:29:10.240Z,100010.50
2023-04-04T23:31:39.222Z,100014.38
2023-04-04T23:34:08.076Z,100016.09
2023-04-04T23:36:38.394Z,100010.28
2023-04-04T23:39:07.492Z,100013.44
2023-04-04T23:41:36.255Z,100003.56
2023-04-04T23:44:05.133Z,100010.28
2023-04-04T23:46:35.535Z,100005.53
2023-04-04T23:49:04.470Z,100007.25
2023-04-04T23:51:38.489Z,100007.13
2023-04-04T23:54:09.965Z,100006.00
2023-04-04T23:56:39.067Z,100006.59
2023-04-04T23:59:08.498Z,100007.56
